Time;durP1;ratioP1;P1;durP2;ratioP2;P2;SDS_P1;SDS_P2;PMS_P1;PMS_P2;Temp;Humidity;BMP_temperature;BMP_pressure;BME280_temperature;BME280_humidity;BME280_pressure;Samples;Min_cycle;Max_cycle;Signal;HPM_P1;HPM_P2
2023/04/12 00:00:34;;;;;;;8.57;1.90;;;8.70;93.70;;;;;;5075523;28;20043;-88
2023/04/12 00:03:01;;;;;;;9.95;1.95;;;8.80;93.70;;;;;;5091159;27;20117;-88
2023/04/12 00:05:28;;;;;;;8.27;1.85;;;8.80;93.60;;;;;;5096669;27;20035;-87
2023/04/12 00:07:54;;;;;;;7.60;1.85;;;8.80;94.10;;;;;;5112367;27;20070;-88
2023/04/12 00:10:21;;;;;;;9.63;2.28;;;8.80;94.00;;;;;;5112918;27;20067;-88
2023/04/12 00:12:48;;;;;;;9.05;1.85;;;8.80;93.90;;;;;;5095473;28;20077;-88
2023/04/12 00:15:14;;;;;;;8.48;2.05;;;8.80;94.10;;;;;;5088928;28;20043;-88
2023/04/12 00:17:40;;;;;;;7.10;1.95;;;8.80;94.50;;;;;;5075571;28;20573;-87
2023/04/12 00:20:11;;;;;;;7.40;1.88;;;8.80;94.40;;;;;;5091280;28;20039;-89
2023/04/12 00:22:40;;;;;;;10.23;2.42;;;8.80;94.50;;;;;;5110415;27;20075;-88
2023/04/12 00:25:06;;;;;;;9.38;2.20;;;8.80;94.60;;;;;;5103911;27;20058;-88
2023/04/12 00:27:32;;;;;;;9.00;2.35;;;8.90;94.80;;;;;;5105362;27;20471;-88
2023/04/12 00:29:57;;;;;;;7.68;1.77;;;8.90;95.30;;;;;;5106791;27;20027;-88
2023/04/12 00:32:23;;;;;;;9.13;2.00;;;8.90;95.10;;;;;;5103621;27;20499;-88
2023/04/12 00:34:49;;;;;;;8.98;2.53;;;8.90;95.10;;;;;;5104033;28;20084;-87
2023/04/12 00:37:14;;;;;;;9.82;2.20;;;8.90;95.20;;;;;;5092634;28;20041;-88
2023/04/12 00:39:40;;;;;;;10.85;2.22;;;8.90;95.60;;;;;;5110720;28;20471;-88
2023/04/12 00:42:06;;;;;;;12.63;2.55;;;8.90;95.60;;;;;;5100782;28;20047;-87
2023/04/12 00:44:32;;;;;;;9.70;2.67;;;8.90;95.70;;;;;;5095629;28;20039;-87
2023/04/12 00:47:04;;;;;;;8.80;2.38;;;9.00;95.60;;;;;;5131823;28;20127;-88
2023/04/12 00:49:30;;;;;;;9.93;2.10;;;9.00;95.60;;;;;;5132583;27;20047;-88
2023/04/12 00:52:02;;;;;;;10.35;2.50;;;9.00;95.50;;;;;;5095910;28;20455;-88
2023/04/12 00:54:28;;;;;;;10.07;2.35;;;9.00;95.40;;;;;;5078740;28;20027;-88
2023/04/12 00:56:56;;;;;;;8.73;2.40;;;9.10;95.40;;;;;;5096125;28;20087;-89
2023/04/12 00:59:22;;;;;;;11.27;2.58;;;9.10;95.50;;;;;;5095771;28;20050;-88
2023/04/12 01:01:48;;;;;;;11.10;3.00;;;9.10;95.80;;;;;;5094708;28;20050;-89
2023/04/12 01:04:14;;;;;;;10.43;2.42;;;9.10;95.80;;;;;;5096080;28;20035;-88
2023/04/12 01:07:09;;;;;;;10.18;2.45;;;9.20;95.90;;;;;;5095019;28;20039;-89
2023/04/12 01:09:49;;;;;;;11.82;2.55;;;9.20;96.60;;;;;;5112672;28;20042;-89
2023/04/12 01:12:45;;;;;;;8.77;2.70;;;9.20;96.00;;;;;;5132748;27;20043;-88
2023/04/12 01:15:13;;;;;;;13.32;3.13;;;9.30;97.10;;;;;;5095483;28;20044;-88
2023/04/12 01:17:56;;;;;;;7.32;2.38;;;9.30;95.70;;;;;;5079929;27;20046;-88
2023/04/12 01:20:27;;;;;;;7.95;2.35;;;9.40;96.10;;;;;;5099040;28;20032;-89
2023/04/12 01:23:27;;;;;;;11.48;2.60;;;9.40;95.70;;;;;;5079637;28;20108;-90
2023/04/12 01:26:45;;;;;;;10.00;2.50;;;9.40;96.50;;;;;;5086944;28;20092;-92
2023/04/12 01:29:18;;;;;;;10.82;2.08;;;9.40;96.50;;;;;;5076567;28;20044;-91
2023/04/12 01:32:03;;;;;;;9.63;2.08;;;9.40;95.80;;;;;;5101747;27;20049;-90
2023/04/12 01:34:32;;;;;;;12.95;2.60;;;9.50;96.60;;;;;;5095231;28;20058;-91
2023/04/12 01:37:00;;;;;;;10.18;2.55;;;9.50;95.80;;;;;;5079291;27;20449;-90
2023/04/12 01:39:28;;;;;;;11.13;3.05;;;9.50;96.70;;;;;;5097872;27;20043;-90
2023/04/12 01:41:54;;;;;;;10.85;1.98;;;9.50;96.20;;;;;;5098918;27;20062;-90
2023/04/12 01:44:20;;;;;;;7.55;1.77;;;9.50;96.80;;;;;;5114871;27;20042;-90
2023/04/12 01:46:47;;;;;;;8.15;2.08;;;9.50;97.10;;;;;;5134375;27;20396;-90
2023/04/12 01:49:14;;;;;;;9.57;2.00;;;9.50;97.90;;;;;;5097291;27;20033;-90
2023/04/12 01:51:52;;;;;;;12.45;2.72;;;9.60;98.40;;;;;;5087428;28;20381;-90
2023/04/12 01:54:32;;;;;;;8.77;1.83;;;9.60;99.90;;;;;;5086453;27;20039;-90
2023/04/12 01:57:01;;;;;;;10.43;2.08;;;9.60;99.90;;;;;;5095433;28;20065;-90
2023/04/12 01:59:39;;;;;;;11.20;2.15;;;9.60;99.90;;;;;;5078004;28;20504;-90
2023/04/12 02:02:06;;;;;;;9.13;1.83;;;9.60;99.90;;;;;;5098000;27;20039;-90
2023/04/12 02:04:34;;;;;;;11.95;2.35;;;9.60;99.90;;;;;;5116295;27;20042;-89
2023/04/12 02:07:00;;;;;;;8.18;2.08;;;9.60;99.90;;;;;;5114863;27;20118;-89
2023/04/12 02:09:26;;;;;;;8.38;2.05;;;9.50;99.90;;;;;;5098353;27;20532;-90
2023/04/12 02:11:51;;;;;;;10.57;1.75;;;9.60;99.90;;;;;;5097505;27;20035;-90
2023/04/12 02:14:18;;;;;;;9.77;2.38;;;9.50;99.90;;;;;;5096919;27;20449;-89
2023/04/12 02:16:44;;;;;;;6.13;2.35;;;9.50;99.90;;;;;;5098269;27;20427;-90
2023/04/12 02:19:10;;;;;;;9.93;1.80;;;9.50;99.90;;;;;;5097062;27;20039;-89
2023/04/12 02:21:41;;;;;;;12.45;2.03;;;9.50;99.90;;;;;;5098065;27;20081;-90
2023/04/12 02:24:07;;;;;;;6.93;1.77;;;9.50;99.90;;;;;;5113174;27;20042;-89
2023/04/12 02:26:33;;;;;;;6.63;1.58;;;9.50;99.90;;;;;;5078497;28;20092;-89
2023/04/12 02:28:59;;;;;;;4.50;1.45;;;9.50;99.90;;;;;;5084858;27;20039;-90
2023/04/12 02:31:25;;;;;;;7.78;1.52;;;9.50;99.90;;;;;;5096976;27;20127;-90
2023/04/12 02:33:50;;;;;;;7.10;2.13;;;9.50;99.90;;;;;;5114412;27;20035;-90
2023/04/12 02:36:17;;;;;;;8.60;1.60;;;9.50;99.90;;;;;;5097135;27;20049;-90
2023/04/12 02:38:42;;;;;;;5.70;2.22;;;9.50;99.90;;;;;;5097681;27;20031;-90
2023/04/12 02:41:08;;;;;;;6.53;1.70;;;9.50;99.90;;;;;;5093170;27;20047;-89
2023/04/12 02:43:34;;;;;;;8.35;1.88;;;9.40;99.90;;;;;;5098545;27;20043;-90
2023/04/12 02:45:59;;;;;;;7.93;2.03;;;9.40;99.90;;;;;;5114696;27;20122;-90
2023/04/12 02:48:25;;;;;;;6.28;1.55;;;9.40;99.90;;;;;;5099378;28;20122;-90
2023/04/12 02:50:51;;;;;;;6.78;1.50;;;9.40;99.90;;;;;;5076714;28;20036;-89
2023/04/12 02:53:16;;;;;;;3.75;1.30;;;9.40;99.90;;;;;;5101340;28;20047;-90
2023/04/12 02:55:43;;;;;;;8.73;1.30;;;9.40;99.90;;;;;;5077411;28;20043;-90
2023/04/12 02:58:09;;;;;;;9.52;1.90;;;9.40;99.90;;;;;;5089236;27;20038;-90
2023/04/12 03:00:35;;;;;;;7.65;1.38;;;9.40;99.90;;;;;;5132843;27;20039;-90
2023/04/12 03:03:02;;;;;;;5.25;1.45;;;9.40;99.90;;;;;;5097302;27;20075;-90
2023/04/12 03:05:28;;;;;;;4.93;1.60;;;9.40;99.90;;;;;;5097623;27;20507;-90
2023/04/12 03:07:54;;;;;;;7.55;1.70;;;9.40;99.90;;;;;;5114736;27;20039;-90
2023/04/12 03:10:20;;;;;;;8.18;1.75;;;9.40;99.90;;;;;;5131224;27;20126;-90
2023/04/12 03:12:45;;;;;;;8.50;1.55;;;9.40;99.90;;;;;;5096608;27;20476;-89
2023/04/12 03:15:11;;;;;;;6.93;1.40;;;9.40;99.90;;;;;;5094555;27;20035;-90
2023/04/12 03:17:37;;;;;;;5.28;1.80;;;9.40;99.90;;;;;;5076252;28;20401;-90
2023/04/12 03:20:08;;;;;;;5.97;1.92;;;9.50;99.90;;;;;;5076524;28;20035;-90
2023/04/12 03:22:35;;;;;;;7.75;1.73;;;9.50;99.90;;;;;;5092893;27;20035;-90
2023/04/12 03:25:02;;;;;;;6.75;1.52;;;9.40;99.90;;;;;;5097691;27;20039;-90
2023/04/12 03:27:28;;;;;;;6.07;1.50;;;9.50;99.90;;;;;;5097445;27;20045;-90
2023/04/12 03:29:55;;;;;;;7.47;1.58;;;9.40;99.90;;;;;;5113012;27;20040;-90
2023/04/12 03:32:21;;;;;;;6.97;1.95;;;9.50;99.90;;;;;;5113367;27;20081;-90
2023/04/12 03:34:47;;;;;;;7.18;1.90;;;9.40;99.90;;;;;;5094634;27;20126;-90
2023/04/12 03:37:12;;;;;;;6.45;1.83;;;9.40;99.90;;;;;;5096816;27;20130;-90
2023/04/12 03:39:38;;;;;;;8.93;2.10;;;9.50;99.90;;;;;;5095920;27;20088;-89
2023/04/12 03:42:04;;;;;;;6.55;2.15;;;9.50;99.90;;;;;;5093622;27;20465;-90
2023/04/12 03:44:31;;;;;;;6.03;1.50;;;9.40;99.90;;;;;;5097267;27;20417;-88
2023/04/12 03:46:57;;;;;;;9.82;1.90;;;9.50;99.90;;;;;;5097108;27;20069;-88
2023/04/12 03:49:22;;;;;;;8.20;2.90;;;9.50;99.90;;;;;;5096284;27;20555;-88
2023/04/12 03:51:49;;;;;;;6.70;1.75;;;9.50;99.90;;;;;;5095803;27;20065;-88
2023/04/12 03:54:15;;;;;;;7.85;1.52;;;9.50;99.90;;;;;;5095440;27;20065;-87
2023/04/12 03:56:41;;;;;;;7.07;1.70;;;9.50;99.90;;;;;;5113329;27;20062;-88
2023/04/12 03:59:07;;;;;;;7.30;2.28;;;9.50;99.90;;;;;;5096184;27;20062;-88
2023/04/12 04:01:36;;;;;;;10.30;2.08;;;9.50;99.90;;;;;;5103810;28;20039;-88
2023/04/12 04:04:02;;;;;;;8.43;2.05;;;9.50;99.90;;;;;;5093578;28;20048;-88
2023/04/12 04:06:28;;;;;;;10.48;2.13;;;9.50;99.90;;;;;;5086403;27;20039;-88
2023/04/12 04:08:56;;;;;;;7.18;1.90;;;9.40;99.90;;;;;;5113788;28;20087;-88
2023/04/12 04:11:22;;;;;;;8.35;2.05;;;9.40;99.90;;;;;;5095693;28;20087;-88
2023/04/12 04:13:48;;;;;;;5.82;1.95;;;9.50;99.90;;;;;;5094801;28;20031;-88
2023/04/12 04:16:14;;;;;;;7.97;1.90;;;9.50;99.90;;;;;;5096047;28;20027;-88
2023/04/12 04:18:39;;;;;;;7.00;1.48;;;9.50;99.90;;;;;;5095269;28;20043;-87
2023/04/12 04:21:06;;;;;;;5.90;1.58;;;9.50;99.90;;;;;;5095217;28;20050;-88
2023/04/12 04:23:38;;;;;;;7.80;1.75;;;9.40;99.90;;;;;;5096456;28;20043;-88
2023/04/12 04:26:10;;;;;;;6.30;1.75;;;9.50;99.90;;;;;;5110515;28;20042;-88
2023/04/12 04:28:38;;;;;;;10.38;3.83;;;9.50;99.90;;;;;;5093339;28;20040;-88
2023/04/12 04:31:09;;;;;;;7.03;1.90;;;9.40;99.90;;;;;;5075449;28;20032;-87
2023/04/12 04:33:35;;;;;;;8.18;1.73;;;9.40;99.90;;;;;;5089659;28;20061;-87
2023/04/12 04:36:03;;;;;;;7.32;2.00;;;9.40;99.90;;;;;;5095803;28;20042;-88
2023/04/12 04:38:31;;;;;;;7.18;1.48;;;9.40;99.90;;;;;;5112232;28;20039;-88
2023/04/12 04:40:58;;;;;;;7.53;1.70;;;9.40;99.90;;;;;;5094662;28;20035;-88
2023/04/12 04:43:25;;;;;;;8.23;1.90;;;9.40;99.90;;;;;;5095829;28;20039;-88
2023/04/12 04:45:54;;;;;;;8.15;1.90;;;9.40;99.90;;;;;;5097672;27;20543;-89
2023/04/12 04:48:20;;;;;;;8.05;1.92;;;9.40;99.90;;;;;;5079695;28;20044;-88
2023/04/12 04:50:46;;;;;;;7.63;1.80;;;9.40;99.90;;;;;;5079142;28;20126;-88
2023/04/12 04:53:12;;;;;;;6.28;1.48;;;9.30;99.90;;;;;;5092190;27;20042;-89
2023/04/12 04:55:37;;;;;;;5.93;1.65;;;9.30;99.90;;;;;;5099176;27;20039;-88
2023/04/12 04:58:07;;;;;;;7.93;2.00;;;9.30;99.90;;;;;;5098462;27;20035;-89
2023/04/12 05:00:34;;;;;;;5.80;1.38;;;9.30;99.90;;;;;;5099151;27;20043;-89
2023/04/12 05:03:02;;;;;;;7.07;1.85;;;9.30;99.90;;;;;;5099994;27;20050;-88
2023/04/12 05:05:28;;;;;;;4.28;1.52;;;9.40;99.90;;;;;;5079541;28;20074;-88
2023/04/12 05:07:55;;;;;;;9.60;1.85;;;9.30;99.90;;;;;;5100234;27;20110;-88
2023/04/12 05:10:21;;;;;;;7.82;1.55;;;9.30;99.90;;;;;;5132259;27;20031;-88
2023/04/12 05:12:47;;;;;;;5.57;1.58;;;9.30;99.90;;;;;;5083222;28;20451;-88
2023/04/12 05:15:13;;;;;;;7.28;1.35;;;9.30;99.90;;;;;;5095022;28;20482;-88
2023/04/12 05:17:39;;;;;;;6.07;1.52;;;9.30;99.90;;;;;;5111174;27;20034;-88
2023/04/12 05:20:07;;;;;;;9.35;1.50;;;9.20;99.90;;;;;;5098009;27;20128;-87
2023/04/12 05:22:33;;;;;;;5.30;1.65;;;9.20;99.90;;;;;;5097705;27;20087;-87
2023/04/12 05:25:00;;;;;;;5.57;1.33;;;9.20;99.90;;;;;;5099129;27;20036;-88
2023/04/12 05:27:26;;;;;;;6.28;1.45;;;9.20;99.90;;;;;;5089125;27;20112;-87
2023/04/12 05:29:52;;;;;;;7.55;1.63;;;9.20;99.90;;;;;;5098727;27;20043;-87
2023/04/12 05:32:18;;;;;;;6.78;1.52;;;9.20;99.90;;;;;;5115845;27;20602;-87
2023/04/12 05:34:44;;;;;;;5.63;1.70;;;9.20;99.90;;;;;;5081868;28;20111;-87
2023/04/12 05:37:10;;;;;;;5.15;1.63;;;9.20;99.90;;;;;;5078062;28;20039;-87
2023/04/12 05:39:36;;;;;;;5.38;1.33;;;9.20;99.90;;;;;;5077219;27;20119;-86
2023/04/12 05:42:01;;;;;;;4.57;1.58;;;9.20;99.90;;;;;;5077697;28;20043;-87
2023/04/12 05:44:27;;;;;;;7.47;1.75;;;9.20;99.90;;;;;;5077908;28;20118;-86
2023/04/12 05:46:53;;;;;;;7.38;1.58;;;9.20;99.90;;;;;;5090261;27;20049;-87
2023/04/12 05:49:18;;;;;;;9.20;1.80;;;9.20;99.90;;;;;;5098353;27;20127;-88
2023/04/12 05:51:44;;;;;;;7.35;1.80;;;9.20;99.90;;;;;;5087195;28;20431;-88
2023/04/12 05:54:10;;;;;;;10.15;1.60;;;9.20;99.90;;;;;;5078073;28;20484;-87
2023/04/12 05:56:36;;;;;;;7.75;1.75;;;9.20;99.90;;;;;;5094368;28;20477;-88
2023/04/12 05:59:03;;;;;;;9.77;1.50;;;9.20;99.90;;;;;;5095818;27;20039;-87
2023/04/12 06:01:31;;;;;;;9.35;1.88;;;9.20;99.90;;;;;;5098852;27;20549;-88
2023/04/12 06:03:57;;;;;;;4.95;1.55;;;9.20;99.90;;;;;;5092720;27;20043;-88
2023/04/12 06:06:23;;;;;;;6.30;1.55;;;9.10;99.90;;;;;;5133913;27;20074;-88
2023/04/12 06:08:49;;;;;;;9.52;2.13;;;9.20;99.90;;;;;;5098345;27;20073;-87
2023/04/12 06:11:15;;;;;;;5.40;1.45;;;9.20;99.90;;;;;;5088782;27;20061;-88
2023/04/12 06:13:40;;;;;;;8.38;1.80;;;9.10;99.90;;;;;;5098455;27;20412;-88
2023/04/12 06:16:06;;;;;;;5.72;1.45;;;9.10;99.90;;;;;;5097911;27;20031;-87
2023/04/12 06:18:33;;;;;;;8.80;1.75;;;9.10;99.90;;;;;;5097600;27;20092;-87
2023/04/12 06:20:59;;;;;;;6.55;1.60;;;9.20;99.90;;;;;;5098392;27;20039;-88
2023/04/12 06:23:24;;;;;;;5.90;1.65;;;9.10;99.90;;;;;;5105867;27;20042;-88
2023/04/12 06:25:52;;;;;;;5.10;1.67;;;9.10;99.90;;;;;;5115314;27;20043;-88
2023/04/12 06:28:17;;;;;;;6.10;1.60;;;9.10;99.90;;;;;;5115362;27;20031;-87
2023/04/12 06:30:43;;;;;;;6.22;1.63;;;9.10;99.90;;;;;;5117716;27;20399;-88
2023/04/12 06:33:10;;;;;;;8.32;1.88;;;9.10;99.90;;;;;;5098206;27;20050;-89
2023/04/12 06:35:35;;;;;;;10.13;2.40;;;9.10;99.90;;;;;;5114383;27;20141;-87
2023/04/12 06:38:01;;;;;;;6.90;1.65;;;9.20;99.90;;;;;;5078065;28;20496;-87
2023/04/12 06:40:27;;;;;;;5.13;1.40;;;9.10;99.90;;;;;;5097794;27;20426;-87
2023/04/12 06:42:52;;;;;;;5.93;1.90;;;9.10;99.90;;;;;;5107403;27;20039;-87
2023/04/12 06:45:18;;;;;;;7.25;1.75;;;9.10;99.90;;;;;;5097873;27;20039;-88
2023/04/12 06:47:44;;;;;;;7.35;1.40;;;9.10;99.90;;;;;;5130438;27;20120;-87
2023/04/12 06:50:09;;;;;;;7.95;1.67;;;9.10;99.90;;;;;;5077460;28;20114;-88
2023/04/12 06:52:35;;;;;;;6.20;1.73;;;9.10;99.90;;;;;;5118702;27;20404;-88
2023/04/12 06:55:01;;;;;;;11.23;2.97;;;9.10;99.90;;;;;;5095016;28;20063;-87
2023/04/12 06:57:26;;;;;;;4.15;1.50;;;9.10;99.90;;;;;;5093511;28;20063;-88
2023/04/12 06:59:52;;;;;;;7.05;2.05;;;9.10;99.90;;;;;;5079470;28;20036;-87
2023/04/12 07:02:18;;;;;;;9.15;1.95;;;9.10;99.90;;;;;;5077149;28;20044;-88
2023/04/12 07:04:43;;;;;;;5.75;1.63;;;9.10;99.90;;;;;;5081724;27;20408;-88
2023/04/12 07:07:09;;;;;;;6.93;1.63;;;9.10;99.90;;;;;;5096475;27;20042;-87
2023/04/12 07:09:35;;;;;;;7.20;1.67;;;9.10;99.90;;;;;;5095239;27;20576;-88
2023/04/12 07:12:03;;;;;;;7.45;1.75;;;9.10;99.90;;;;;;5095884;27;20039;-88
2023/04/12 07:14:29;;;;;;;7.63;1.58;;;9.10;99.90;;;;;;5114273;27;20073;-88
2023/04/12 07:16:55;;;;;;;6.20;2.03;;;9.10;99.90;;;;;;5092805;27;20066;-88
2023/04/12 07:19:21;;;;;;;5.78;1.60;;;9.10;99.90;;;;;;5086699;28;20039;-88
2023/04/12 07:21:46;;;;;;;4.28;1.60;;;9.10;99.90;;;;;;5086682;27;20039;-88
2023/04/12 07:24:12;;;;;;;7.00;1.60;;;9.10;99.90;;;;;;5111272;27;20046;-88
2023/04/12 07:26:38;;;;;;;7.57;1.95;;;9.10;99.90;;;;;;5097142;27;20488;-88
2023/04/12 07:29:03;;;;;;;7.47;1.77;;;9.00;99.90;;;;;;5096167;27;20403;-88
2023/04/12 07:31:29;;;;;;;7.63;1.98;;;9.00;99.90;;;;;;5092511;28;20077;-87
2023/04/12 07:33:55;;;;;;;6.28;1.92;;;9.00;99.90;;;;;;5092722;28;20043;-87
2023/04/12 07:36:21;;;;;;;6.35;1.70;;;9.10;99.90;;;;;;5085813;27;20042;-88
2023/04/12 07:38:47;;;;;;;6.18;2.00;;;9.10;99.90;;;;;;5092548;28;20040;-87
2023/04/12 07:41:13;;;;;;;9.20;2.15;;;9.10;99.90;;;;;;5093613;28;20071;-88
2023/04/12 07:43:39;;;;;;;6.50;1.73;;;9.10;99.90;;;;;;5093181;27;20471;-87
2023/04/12 07:46:07;;;;;;;6.20;2.00;;;9.10;99.90;;;;;;5096549;27;20039;-88
2023/04/12 07:48:33;;;;;;;5.32;1.60;;;9.10;99.90;;;;;;5112835;27;20050;-88
2023/04/12 07:50:59;;;;;;;7.15;1.60;;;9.10;99.90;;;;;;5096309;27;20392;-88
2023/04/12 07:53:26;;;;;;;6.07;2.08;;;9.10;99.90;;;;;;5092292;28;20549;-88
2023/04/12 07:55:53;;;;;;;8.38;2.03;;;9.10;99.90;;;;;;5075750;28;20036;-88
2023/04/12 07:58:21;;;;;;;6.63;1.73;;;9.10;99.90;;;;;;5076091;28;20043;-89
2023/04/12 08:00:47;;;;;;;5.70;2.17;;;9.10;99.90;;;;;;5082781;27;20074;-88
2023/04/12 08:03:15;;;;;;;6.60;1.70;;;9.10;99.90;;;;;;5095941;27;20038;-88
2023/04/12 08:05:41;;;;;;;4.75;1.95;;;9.10;99.90;;;;;;5096179;27;20099;-89
2023/04/12 08:08:10;;;;;;;6.50;2.10;;;9.10;99.90;;;;;;5130797;27;20083;-87
2023/04/12 08:10:37;;;;;;;7.78;2.05;;;9.10;99.90;;;;;;5096140;27;20039;-88
2023/04/12 08:13:04;;;;;;;5.20;1.90;;;9.20;99.90;;;;;;5086563;27;20028;-88
2023/04/12 08:15:30;;;;;;;5.32;1.40;;;9.10;99.90;;;;;;5095387;28;20095;-88
2023/04/12 08:17:56;;;;;;;4.85;1.55;;;9.20;99.90;;;;;;5095686;28;20035;-87
2023/04/12 08:20:22;;;;;;;4.47;1.50;;;9.20;99.90;;;;;;5093812;28;20039;-90
2023/04/12 08:22:48;;;;;;;4.50;1.50;;;9.10;99.90;;;;;;5095890;28;20111;-88
2023/04/12 08:25:14;;;;;;;3.72;1.50;;;9.10;99.90;;;;;;5088673;28;20118;-88
2023/04/12 08:27:44;;;;;;;4.57;1.58;;;9.20;99.90;;;;;;5110908;27;20156;-88
2023/04/12 08:30:11;;;;;;;5.10;1.83;;;9.20;99.90;;;;;;5109481;28;20519;-88
2023/04/12 08:32:37;;;;;;;4.72;2.05;;;9.20;99.90;;;;;;5115190;27;20391;-88
2023/04/12 08:35:06;;;;;;;4.25;1.63;;;9.20;99.90;;;;;;5115754;28;20042;-88
2023/04/12 08:37:32;;;;;;;4.20;1.60;;;9.20;99.90;;;;;;5094522;28;20510;-88
2023/04/12 08:40:05;;;;;;;5.55;2.00;;;9.20;99.90;;;;;;5098004;28;20039;-88
2023/04/12 08:42:31;;;;;;;5.15;2.03;;;9.30;99.90;;;;;;5111933;28;20050;-88
2023/04/12 08:44:57;;;;;;;5.20;2.38;;;9.30;99.90;;;;;;5095640;28;20039;-88
2023/04/12 08:47:23;;;;;;;4.10;2.08;;;9.30;99.90;;;;;;5096050;28;20043;-88
2023/04/12 08:49:49;;;;;;;5.50;2.05;;;9.30;99.90;;;;;;5094099;28;20055;-88
2023/04/12 08:52:15;;;;;;;4.75;2.10;;;9.40;99.90;;;;;;5095552;28;20088;-88
2023/04/12 08:54:41;;;;;;;6.05;2.10;;;9.30;99.90;;;;;;5082722;28;20036;-89
2023/04/12 08:57:08;;;;;;;5.93;2.35;;;9.30;99.90;;;;;;5092454;28;20046;-86
2023/04/12 08:59:37;;;;;;;6.78;2.35;;;9.30;99.90;;;;;;5095557;28;20037;-88
2023/04/12 09:02:03;;;;;;;6.25;2.67;;;9.30;99.90;;;;;;5091214;28;20054;-88
2023/04/12 09:04:29;;;;;;;8.32;2.65;;;9.30;99.90;;;;;;5095506;28;20048;-87
2023/04/12 09:06:55;;;;;;;5.45;2.40;;;9.30;99.90;;;;;;5094875;28;20043;-88
2023/04/12 09:09:49;;;;;;;5.50;2.35;;;9.30;99.90;;;;;;5137179;27;20483;-88
2023/04/12 09:12:18;;;;;;;7.40;2.50;;;9.30;99.90;;;;;;5119444;27;20080;-87
2023/04/12 09:14:44;;;;;;;6.63;2.70;;;9.30;99.90;;;;;;5104900;27;20035;-87
2023/04/12 09:17:26;;;;;;;6.50;2.72;;;9.30;99.90;;;;;;5136523;27;20127;-87
2023/04/12 09:19:55;;;;;;;8.50;2.58;;;9.40;99.90;;;;;;5139542;27;20066;-88
2023/04/12 09:22:34;;;;;;;8.02;3.10;;;9.40;99.90;;;;;;5102502;27;20039;-88
2023/04/12 09:25:01;;;;;;;7.32;2.72;;;9.40;99.90;;;;;;5092096;27;20051;-86
2023/04/12 09:27:28;;;;;;;8.57;3.72;;;9.40;99.90;;;;;;5104187;27;20035;-87
2023/04/12 09:30:07;;;;;;;7.60;2.97;;;9.40;99.90;;;;;;5103720;27;20066;-87
2023/04/12 09:32:33;;;;;;;7.13;3.40;;;9.40;99.90;;;;;;5108027;27;20388;-87
2023/04/12 09:35:04;;;;;;;6.70;3.03;;;9.40;99.90;;;;;;5104883;27;20027;-88
2023/04/12 09:37:30;;;;;;;7.05;3.58;;;9.40;99.90;;;;;;5119592;27;20064;-87
2023/04/12 09:40:00;;;;;;;9.20;4.43;;;9.40;99.90;;;;;;5105133;27;20034;-88
2023/04/12 09:42:25;;;;;;;7.40;3.55;;;9.40;99.90;;;;;;5139776;27;20047;-87
2023/04/12 09:44:55;;;;;;;10.10;4.03;;;9.40;99.90;;;;;;5126392;27;20043;-88
2023/04/12 09:47:20;;;;;;;8.85;4.50;;;9.40;99.90;;;;;;5106736;27;20121;-88
2023/04/12 09:49:46;;;;;;;9.05;4.07;;;9.50;99.90;;;;;;5123424;27;20122;-87
2023/04/12 09:52:13;;;;;;;7.60;3.58;;;9.50;99.90;;;;;;5107143;27;20066;-88
2023/04/12 09:54:49;;;;;;;8.95;4.63;;;9.60;99.90;;;;;;5140622;27;20365;-88
2023/04/12 09:57:18;;;;;;;8.18;3.97;;;9.70;99.90;;;;;;5109462;27;20027;-88
2023/04/12 09:59:47;;;;;;;8.68;4.40;;;9.70;99.90;;;;;;5113897;27;20187;-88
2023/04/12 10:02:17;;;;;;;9.13;4.30;;;9.80;99.90;;;;;;5109039;27;20166;-88
2023/04/12 10:04:43;;;;;;;9.10;4.03;;;9.80;99.90;;;;;;5125480;27;20038;-88
2023/04/12 10:07:10;;;;;;;7.55;4.25;;;9.90;99.90;;;;;;5101587;27;20480;-88
2023/04/12 10:09:40;;;;;;;8.25;4.00;;;9.90;99.90;;;;;;5126769;27;20129;-88
2023/04/12 10:12:07;;;;;;;8.20;4.18;;;9.90;99.90;;;;;;5101107;27;20109;-88
2023/04/12 10:14:33;;;;;;;9.73;5.03;;;9.90;99.90;;;;;;5135850;27;20023;-88
2023/04/12 10:17:01;;;;;;;8.10;4.28;;;10.00;99.90;;;;;;5107352;27;20070;-88
2023/04/12 10:19:32;;;;;;;9.73;4.82;;;10.10;99.90;;;;;;5105852;27;20035;-88
2023/04/12 10:22:00;;;;;;;8.15;4.22;;;10.30;99.90;;;;;;5099017;27;20122;-87
2023/04/12 10:24:27;;;;;;;9.02;4.72;;;10.50;99.90;;;;;;5115746;27;20047;-87
2023/04/12 10:26:54;;;;;;;8.45;4.75;;;10.60;99.90;;;;;;5101442;27;20118;-87
2023/04/12 10:29:31;;;;;;;11.68;4.80;;;10.80;99.90;;;;;;5121940;27;20039;-88
2023/04/12 10:32:17;;;;;;;9.05;3.92;;;10.90;99.90;;;;;;5113375;27;20491;-88
2023/04/12 10:34:43;;;;;;;8.93;3.47;;;11.00;99.90;;;;;;5125981;27;20042;-88
2023/04/12 10:37:08;;;;;;;8.73;3.20;;;11.10;99.90;;;;;;5077560;28;20122;-87
2023/04/12 10:39:37;;;;;;;7.20;2.80;;;11.20;99.90;;;;;;5076649;28;20061;-88
2023/04/12 10:42:14;;;;;;;8.10;3.63;;;11.20;99.90;;;;;;5127186;27;20039;-88
2023/04/12 10:44:40;;;;;;;9.32;3.90;;;11.30;99.90;;;;;;5132047;27;20113;-89
2023/04/12 10:47:06;;;;;;;8.10;2.85;;;11.40;99.90;;;;;;5111144;28;20074;-89
2023/04/12 10:49:33;;;;;;;7.20;2.97;;;11.40;99.90;;;;;;5092832;28;20055;-88
2023/04/12 10:52:08;;;;;;;7.68;3.38;;;11.50;99.90;;;;;;5077125;28;20036;-89
2023/04/12 10:54:34;;;;;;;11.07;3.65;;;11.60;99.90;;;;;;5101584;28;20032;-89
2023/04/12 10:57:01;;;;;;;12.07;3.22;;;11.60;99.90;;;;;;5076628;28;20042;-89
2023/04/12 10:59:55;;;;;;;9.57;3.40;;;11.70;99.90;;;;;;5081278;27;20043;-89
2023/04/12 11:02:21;;;;;;;9.23;3.00;;;11.70;99.90;;;;;;5110757;28;20047;-89
2023/04/12 11:05:07;;;;;;;10.43;3.13;;;11.80;99.90;;;;;;5084415;27;20050;-88
2023/04/12 11:07:44;;;;;;;9.50;3.97;;;11.90;99.90;;;;;;5075590;28;20687;-89
2023/04/12 11:10:18;;;;;;;10.35;3.08;;;12.20;99.90;;;;;;5110995;28;20075;-88
2023/04/12 11:12:49;;;;;;;13.68;3.30;;;12.30;99.90;;;;;;5121520;27;20114;-89
2023/04/12 11:15:15;;;;;;;8.45;2.92;;;12.30;99.90;;;;;;5126542;27;20110;-89
2023/04/12 11:17:41;;;;;;;9.13;3.17;;;12.40;99.90;;;;;;5132737;27;20043;-89
2023/04/12 11:20:11;;;;;;;11.43;3.97;;;12.40;99.90;;;;;;5113075;27;20072;-89
2023/04/12 11:22:38;;;;;;;12.32;2.78;;;12.40;99.90;;;;;;5114759;27;20104;-89
2023/04/12 11:25:04;;;;;;;12.85;2.70;;;12.60;99.90;;;;;;5095410;27;20496;-89
2023/04/12 11:27:33;;;;;;;9.60;2.55;;;12.70;99.90;;;;;;5076068;28;20078;-90
2023/04/12 11:30:00;;;;;;;15.05;2.70;;;12.80;99.90;;;;;;5084035;27;20541;-90
2023/04/12 11:32:28;;;;;;;9.45;2.42;;;12.80;99.90;;;;;;5095530;27;20063;-91
2023/04/12 11:34:55;;;;;;;10.80;2.60;;;12.80;99.90;;;;;;5096759;27;20070;-90
2023/04/12 11:37:22;;;;;;;9.75;2.60;;;12.80;99.90;;;;;;5112956;27;20123;-91
2023/04/12 11:39:51;;;;;;;11.40;3.17;;;12.70;99.90;;;;;;5131721;27;20069;-90
2023/04/12 11:42:22;;;;;;;8.43;2.65;;;12.70;99.90;;;;;;5096363;27;20031;-90
2023/04/12 11:44:48;;;;;;;12.10;3.58;;;12.80;99.90;;;;;;5096591;27;20078;-91
2023/04/12 11:47:19;;;;;;;9.32;2.60;;;12.90;99.90;;;;;;5097141;27;20187;-90
2023/04/12 11:49:52;;;;;;;11.15;2.08;;;12.90;99.90;;;;;;5084707;28;20036;-90
2023/04/12 11:52:19;;;;;;;7.53;1.92;;;12.90;99.90;;;;;;5076229;28;20051;-90
2023/04/12 11:54:49;;;;;;;7.50;1.92;;;12.90;99.90;;;;;;5097004;27;20035;-90
2023/04/12 11:57:17;;;;;;;10.40;2.33;;;13.10;99.90;;;;;;5098041;27;20043;-90
2023/04/12 11:59:45;;;;;;;8.38;2.30;;;13.20;99.90;;;;;;5122831;27;20121;-90
2023/04/12 12:02:12;;;;;;;12.70;2.35;;;13.40;99.90;;;;;;5103024;27;20131;-91
2023/04/12 12:04:42;;;;;;;8.65;2.75;;;13.50;99.90;;;;;;5122673;27;20042;-91
2023/04/12 12:07:10;;;;;;;10.70;2.40;;;13.70;99.90;;;;;;5120586;27;20042;-91
2023/04/12 12:09:35;;;;;;;12.93;2.75;;;13.90;99.90;;;;;;5105011;27;20039;-91
2023/04/12 12:12:01;;;;;;;13.70;3.70;;;13.90;99.90;;;;;;5106190;27;20034;-90
2023/04/12 12:14:28;;;;;;;9.50;2.35;;;14.10;96.90;;;;;;5103259;27;20508;-91
2023/04/12 12:16:55;;;;;;;9.38;3.08;;;14.20;95.70;;;;;;5122663;27;20031;-91
2023/04/12 12:19:29;;;;;;;12.23;2.60;;;14.30;98.30;;;;;;5103863;27;20117;-91
2023/04/12 12:22:08;;;;;;;11.43;2.35;;;14.40;95.70;;;;;;5123203;27;20054;-91
2023/04/12 12:24:35;;;;;;;11.63;2.40;;;14.50;92.30;;;;;;5119401;28;20058;-91
2023/04/12 12:27:03;;;;;;;13.68;3.60;;;14.60;93.00;;;;;;5076112;28;20044;-90
2023/04/12 12:29:36;;;;;;;14.20;2.88;;;14.80;90.90;;;;;;5092346;28;20412;-91
2023/04/12 12:32:09;;;;;;;10.85;2.67;;;14.90;91.50;;;;;;5082673;28;20118;-92
2023/04/12 12:34:35;;;;;;;;;;;14.90;90.20;;;;;;5096679;28;20396;-91
2023/04/12 12:37:01;;;;;;;11.75;2.78;;;14.80;90.20;;;;;;5112423;28;19922;-91
2023/04/12 12:39:26;;;;;;;13.27;3.13;;;14.70;90.30;;;;;;5112712;28;20039;-92
2023/04/12 12:41:55;;;;;;;12.18;3.20;;;14.60;90.90;;;;;;5131333;28;20031;-91
2023/04/12 12:44:24;;;;;;;13.75;2.67;;;14.70;90.30;;;;;;5086781;28;20495;-90
2023/04/12 12:46:50;;;;;;;12.45;2.85;;;14.70;90.10;;;;;;5112680;28;20035;-90
2023/04/12 12:49:16;;;;;;;11.93;2.75;;;14.60;84.00;;;;;;5112609;28;20088;-91
2023/04/12 12:51:42;;;;;;;10.45;2.22;;;14.60;83.10;;;;;;5084206;28;20035;-90
2023/04/12 12:54:08;;;;;;;13.73;3.58;;;14.50;82.50;;;;;;5092735;28;20032;-91
2023/04/12 12:56:37;;;;;;;12.98;2.47;;;14.40;80.70;;;;;;5076116;28;20069;-90